This is the latest recevied weather packets stored in our database for station/object K9YK-13. If no packets are shown the sender has not sent any weather packets the latest 10 day(s).
| Time | Temp. | Humidity | Pressure | Rain* | Wind** | Luminosity | Snow |
|---|---|---|---|---|---|---|---|
| 1778187969 | 12.22° C | 81% | 0 hPa | 0 mm | - | - | - |
| 1778187669 | 11.67° C | 82% | 0 hPa | 0 mm | - | - | - |
| 1778187369 | 11.67° C | 83% | 0 hPa | 0 mm | - | - | - |
| 1778187068 | 12.22° C | 83% | 0 hPa | 0 mm | - | - | - |
| 1778186769 | 12.22° C | 80% | 0 hPa | 0 mm | - | - | - |
| 1778186469 | 12.78° C | 78% | 0 hPa | 0 mm | - | - | - |
| 1778186169 | 12.78° C | 73% | 0 hPa | 0 mm | - | - | - |
| 1778185869 | 13.89° C | 68% | 0 hPa | 0 mm | - | - | - |
| 1778185569 | 15° C | 62% | 0 hPa | 0 mm | - | - | - |
| 1778185269 | 16.11° C | 52% | 0 hPa | 0 mm | - | - | - |
| 1778184969 | 17.22° C | 48% | 0 hPa | 0 mm | - | - | - |
| 1778184669 | 16.67° C | 47% | 0 hPa | 0 mm | - | - | - |
| 1778184368 | 17.78° C | 47% | 0 hPa | 0 mm | - | - | - |
| 1778184069 | 17.78° C | 44% | 0 hPa | 0 mm | - | - | - |
| 1778183769 | 17.78° C | 46% | 0 hPa | 0 mm | - | - | - |
| 1778183469 | 17.78° C | 47% | 0 hPa | 0 mm | - | - | - |
| 1778183169 | 17.78° C | 45% | 0 hPa | 0 mm | - | - | - |
| 1778182869 | 16.67° C | 49% | 0 hPa | 0 mm | - | - | - |
| 1778182569 | 16.11° C | 47% | 0 hPa | 0 mm | - | - | - |
| 1778182269 | 16.11° C | 48% | 0 hPa | 0 mm | - | - | - |
| 1778181969 | 16.67° C | 48% | 0 hPa | 0 mm | - | - | - |
| 1778181669 | 15.56° C | 46% | 0 hPa | 0 mm | - | - | - |
| 1778181369 | 16.11° C | 47% | 0 hPa | 0 mm | - | - | - |
| 1778181069 | 16.11° C | 51% | 0 hPa | 0 mm | - | - | - |
| 1778180769 | 16.67° C | 46% | 0 hPa | 0 mm | - | - | - |
* Rain latest hour (hover to see other rain measurements)
** Current wind speed in m/s (hover to see current wind gust speed)